sensor_id;sensor_type;location;lat;lon;timestamp;temperature;humidity
25973;DHT22;13765;51.166;4.466;2022-09-02T00:01:51;18.50;99.90
25973;DHT22;13765;51.166;4.466;2022-09-02T00:04:22;18.40;99.90
25973;DHT22;13765;51.166;4.466;2022-09-02T00:06:48;18.40;99.90
25973;DHT22;13765;51.166;4.466;2022-09-02T00:09:15;18.40;99.90
25973;DHT22;13765;51.166;4.466;2022-09-02T00:11:41;18.30;99.90
25973;DHT22;13765;51.166;4.466;2022-09-02T00:14:09;18.30;99.90
25973;DHT22;13765;51.166;4.466;2022-09-02T00:16:35;18.30;99.90
25973;DHT22;13765;51.166;4.466;2022-09-02T00:19:02;18.20;99.90
25973;DHT22;13765;51.166;4.466;2022-09-02T00:21:29;18.20;99.90
25973;DHT22;13765;51.166;4.466;2022-09-02T00:23:55;18.10;99.90
25973;DHT22;13765;51.166;4.466;2022-09-02T00:26:21;18.10;99.90
25973;DHT22;13765;51.166;4.466;2022-09-02T00:28:47;18.10;99.90
25973;DHT22;13765;51.166;4.466;2022-09-02T00:31:13;18.00;99.90
25973;DHT22;13765;51.166;4.466;2022-09-02T00:33:40;18.00;99.90
25973;DHT22;13765;51.166;4.466;2022-09-02T00:36:06;17.90;99.90
25973;DHT22;13765;51.166;4.466;2022-09-02T00:38:32;17.90;99.90
25973;DHT22;13765;51.166;4.466;2022-09-02T00:40:59;17.90;99.90
25973;DHT22;13765;51.166;4.466;2022-09-02T00:43:47;17.90;99.90
25973;DHT22;13765;51.166;4.466;2022-09-02T00:46:12;17.80;99.90
25973;DHT22;13765;51.166;4.466;2022-09-02T00:48:44;17.80;99.90
25973;DHT22;13765;51.166;4.466;2022-09-02T00:51:13;17.80;99.90
25973;DHT22;13765;51.166;4.466;2022-09-02T00:53:40;17.70;99.90
25973;DHT22;13765;51.166;4.466;2022-09-02T00:56:08;17.70;99.90
25973;DHT22;13765;51.166;4.466;2022-09-02T00:58:39;17.70;99.90
25973;DHT22;13765;51.166;4.466;2022-09-02T01:01:07;17.70;99.90
25973;DHT22;13765;51.166;4.466;2022-09-02T01:03:35;17.70;99.90
25973;DHT22;13765;51.166;4.466;2022-09-02T01:06:03;17.60;99.90
25973;DHT22;13765;51.166;4.466;2022-09-02T01:08:35;17.60;99.90
25973;DHT22;13765;51.166;4.466;2022-09-02T01:11:03;17.50;99.90
25973;DHT22;13765;51.166;4.466;2022-09-02T01:13:34;17.50;99.90
25973;DHT22;13765;51.166;4.466;2022-09-02T01:16:06;17.50;99.90
25973;DHT22;13765;51.166;4.466;2022-09-02T01:18:34;17.50;99.90
25973;DHT22;13765;51.166;4.466;2022-09-02T01:21:01;17.40;99.90
25973;DHT22;13765;51.166;4.466;2022-09-02T01:23:27;17.30;99.90
25973;DHT22;13765;51.166;4.466;2022-09-02T01:25:56;17.30;99.90
25973;DHT22;13765;51.166;4.466;2022-09-02T01:28:21;17.30;99.90
25973;DHT22;13765;51.166;4.466;2022-09-02T01:30:50;17.30;99.90
25973;DHT22;13765;51.166;4.466;2022-09-02T01:33:17;17.20;99.90
25973;DHT22;13765;51.166;4.466;2022-09-02T01:35:44;17.20;99.90
25973;DHT22;13765;51.166;4.466;2022-09-02T01:38:12;17.20;99.90
25973;DHT22;13765;51.166;4.466;2022-09-02T01:40:38;17.20;99.90
25973;DHT22;13765;51.166;4.466;2022-09-02T01:43:08;17.10;99.90
25973;DHT22;13765;51.166;4.466;2022-09-02T01:45:34;17.10;99.90
25973;DHT22;13765;51.166;4.466;2022-09-02T01:48:01;17.00;99.90
25973;DHT22;13765;51.166;4.466;2022-09-02T01:50:31;17.00;99.90
25973;DHT22;13765;51.166;4.466;2022-09-02T01:52:58;17.00;99.90
25973;DHT22;13765;51.166;4.466;2022-09-02T01:55:26;17.00;99.90
25973;DHT22;13765;51.166;4.466;2022-09-02T01:57:51;16.90;99.90
25973;DHT22;13765;51.166;4.466;2022-09-02T02:00:19;17.00;99.90
25973;DHT22;13765;51.166;4.466;2022-09-02T02:02:47;17.00;99.90
25973;DHT22;13765;51.166;4.466;2022-09-02T02:05:13;16.90;99.90
25973;DHT22;13765;51.166;4.466;2022-09-02T02:07:42;16.90;99.90
25973;DHT22;13765;51.166;4.466;2022-09-02T02:10:08;16.80;99.90
25973;DHT22;13765;51.166;4.466;2022-09-02T02:12:35;16.90;99.90
25973;DHT22;13765;51.166;4.466;2022-09-02T02:15:04;16.90;99.90
25973;DHT22;13765;51.166;4.466;2022-09-02T02:17:31;17.00;99.90
25973;DHT22;13765;51.166;4.466;2022-09-02T02:19:56;16.90;99.90
25973;DHT22;13765;51.166;4.466;2022-09-02T02:22:22;16.90;99.90
25973;DHT22;13765;51.166;4.466;2022-09-02T02:24:48;16.80;99.90
25973;DHT22;13765;51.166;4.466;2022-09-02T02:27:14;16.90;99.90
25973;DHT22;13765;51.166;4.466;2022-09-02T02:29:40;16.80;99.90
25973;DHT22;13765;51.166;4.466;2022-09-02T02:32:08;16.70;99.90
25973;DHT22;13765;51.166;4.466;2022-09-02T02:34:36;16.70;99.90
25973;DHT22;13765;51.166;4.466;2022-09-02T02:37:02;16.60;99.90
25973;DHT22;13765;51.166;4.466;2022-09-02T02:39:28;16.60;99.90
25973;DHT22;13765;51.166;4.466;2022-09-02T02:41:54;16.60;99.90
25973;DHT22;13765;51.166;4.466;2022-09-02T02:44:20;16.60;99.90
25973;DHT22;13765;51.166;4.466;2022-09-02T02:46:46;16.70;99.90
25973;DHT22;13765;51.166;4.466;2022-09-02T02:49:12;16.70;99.90
25973;DHT22;13765;51.166;4.466;2022-09-02T02:51:38;16.60;99.90
25973;DHT22;13765;51.166;4.466;2022-09-02T02:54:05;16.70;99.90
25973;DHT22;13765;51.166;4.466;2022-09-02T02:56:31;16.60;99.90
25973;DHT22;13765;51.166;4.466;2022-09-02T02:58:57;16.60;99.90
25973;DHT22;13765;51.166;4.466;2022-09-02T03:01:25;16.60;99.90
25973;DHT22;13765;51.166;4.466;2022-09-02T03:03:53;16.50;99.90
25973;DHT22;13765;51.166;4.466;2022-09-02T03:06:19;16.50;99.90
25973;DHT22;13765;51.166;4.466;2022-09-02T03:08:45;16.50;99.90
25973;DHT22;13765;51.166;4.466;2022-09-02T03:11:13;16.50;99.90
25973;DHT22;13765;51.166;4.466;2022-09-02T03:13:41;16.50;99.90
25973;DHT22;13765;51.166;4.466;2022-09-02T03:16:09;16.40;99.90
25973;DHT22;13765;51.166;4.466;2022-09-02T03:18:35;16.40;99.90
25973;DHT22;13765;51.166;4.466;2022-09-02T03:21:01;16.40;99.90
25973;DHT22;13765;51.166;4.466;2022-09-02T03:23:29;16.40;99.90
25973;DHT22;13765;51.166;4.466;2022-09-02T03:25:57;16.30;99.90
25973;DHT22;13765;51.166;4.466;2022-09-02T03:28:25;16.40;99.90
25973;DHT22;13765;51.166;4.466;2022-09-02T03:30:50;16.30;99.90
25973;DHT22;13765;51.166;4.466;2022-09-02T03:33:16;16.30;99.90
25973;DHT22;13765;51.166;4.466;2022-09-02T03:35:43;16.30;99.90
25973;DHT22;13765;51.166;4.466;2022-09-02T03:38:11;16.20;99.90
25973;DHT22;13765;51.166;4.466;2022-09-02T03:40:39;16.20;99.90
25973;DHT22;13765;51.166;4.466;2022-09-02T03:43:05;16.20;99.90
25973;DHT22;13765;51.166;4.466;2022-09-02T03:45:31;16.20;99.90
25973;DHT22;13765;51.166;4.466;2022-09-02T03:47:59;16.20;99.90
25973;DHT22;13765;51.166;4.466;2022-09-02T03:50:27;16.10;99.90
25973;DHT22;13765;51.166;4.466;2022-09-02T03:52:54;16.10;99.90
25973;DHT22;13765;51.166;4.466;2022-09-02T03:55:20;16.10;99.90
25973;DHT22;13765;51.166;4.466;2022-09-02T03:57:47;16.10;99.90
25973;DHT22;13765;51.166;4.466;2022-09-02T04:00:17;16.10;99.90
25973;DHT22;13765;51.166;4.466;2022-09-02T04:02:43;16.10;99.90
25973;DHT22;13765;51.166;4.466;2022-09-02T04:05:12;16.10;99.90
25973;DHT22;13765;51.166;4.466;2022-09-02T04:07:40;16.10;99.90
25973;DHT22;13765;51.166;4.466;2022-09-02T04:10:06;16.10;99.90
25973;DHT22;13765;51.166;4.466;2022-09-02T04:12:35;16.10;99.90
25973;DHT22;13765;51.166;4.466;2022-09-02T04:15:04;16.10;99.90
25973;DHT22;13765;51.166;4.466;2022-09-02T04:17:30;16.10;99.90
25973;DHT22;13765;51.166;4.466;2022-09-02T04:19:58;16.10;99.90
25973;DHT22;13765;51.166;4.466;2022-09-02T04:22:24;16.20;99.90
25973;DHT22;13765;51.166;4.466;2022-09-02T04:24:49;16.10;99.90
25973;DHT22;13765;51.166;4.466;2022-09-02T04:27:15;16.20;99.90
25973;DHT22;13765;51.166;4.466;2022-09-02T04:29:42;16.20;99.90
25973;DHT22;13765;51.166;4.466;2022-09-02T04:32:08;16.30;99.90
25973;DHT22;13765;51.166;4.466;2022-09-02T04:34:34;16.30;99.90
25973;DHT22;13765;51.166;4.466;2022-09-02T04:37:00;16.30;99.90
25973;DHT22;13765;51.166;4.466;2022-09-02T04:39:26;16.30;99.90
25973;DHT22;13765;51.166;4.466;2022-09-02T04:41:51;16.40;99.90
25973;DHT22;13765;51.166;4.466;2022-09-02T04:44:18;16.40;99.90
25973;DHT22;13765;51.166;4.466;2022-09-02T04:46:47;16.40;99.90
25973;DHT22;13765;51.166;4.466;2022-09-02T04:49:13;16.50;99.90
25973;DHT22;13765;51.166;4.466;2022-09-02T04:51:39;16.50;99.90
25973;DHT22;13765;51.166;4.466;2022-09-02T04:54:05;16.50;99.90
25973;DHT22;13765;51.166;4.466;2022-09-02T04:56:33;16.50;99.90
25973;DHT22;13765;51.166;4.466;2022-09-02T04:58:59;16.50;99.90
25973;DHT22;13765;51.166;4.466;2022-09-02T05:01:26;16.50;99.90
25973;DHT22;13765;51.166;4.466;2022-09-02T05:03:52;16.60;99.90
25973;DHT22;13765;51.166;4.466;2022-09-02T05:06:22;16.60;99.90
25973;DHT22;13765;51.166;4.466;2022-09-02T05:08:48;16.60;99.90
25973;DHT22;13765;51.166;4.466;2022-09-02T05:11:15;16.70;99.90
25973;DHT22;13765;51.166;4.466;2022-09-02T05:13:45;16.70;99.90
25973;DHT22;13765;51.166;4.466;2022-09-02T05:16:19;16.70;99.90
25973;DHT22;13765;51.166;4.466;2022-09-02T05:18:45;16.70;99.90
25973;DHT22;13765;51.166;4.466;2022-09-02T05:21:13;16.70;99.90
25973;DHT22;13765;51.166;4.466;2022-09-02T05:23:39;16.70;99.90
25973;DHT22;13765;51.166;4.466;2022-09-02T05:26:06;16.70;99.90
25973;DHT22;13765;51.166;4.466;2022-09-02T05:28:32;16.80;99.90
25973;DHT22;13765;51.166;4.466;2022-09-02T05:31:05;16.80;99.90
25973;DHT22;13765;51.166;4.466;2022-09-02T05:33:31;16.80;99.90
25973;DHT22;13765;51.166;4.466;2022-09-02T05:35:57;16.80;99.90
25973;DHT22;13765;51.166;4.466;2022-09-02T05:38:23;16.90;99.90
25973;DHT22;13765;51.166;4.466;2022-09-02T05:40:52;17.00;99.90
25973;DHT22;13765;51.166;4.466;2022-09-02T05:43:18;17.00;99.90
25973;DHT22;13765;51.166;4.466;2022-09-02T05:45:44;17.00;99.90
25973;DHT22;13765;51.166;4.466;2022-09-02T05:48:09;17.10;99.90
25973;DHT22;13765;51.166;4.466;2022-09-02T05:50:53;17.10;99.90
25973;DHT22;13765;51.166;4.466;2022-09-02T05:53:22;17.20;99.90
25973;DHT22;13765;51.166;4.466;2022-09-02T05:55:53;17.20;99.90
25973;DHT22;13765;51.166;4.466;2022-09-02T05:58:25;17.30;99.90
25973;DHT22;13765;51.166;4.466;2022-09-02T06:00:50;17.40;99.90
25973;DHT22;13765;51.166;4.466;2022-09-02T06:03:18;17.50;99.90
25973;DHT22;13765;51.166;4.466;2022-09-02T06:05:55;17.50;99.90
25973;DHT22;13765;51.166;4.466;2022-09-02T06:08:21;17.60;99.90
25973;DHT22;13765;51.166;4.466;2022-09-02T06:10:49;17.70;99.90
25973;DHT22;13765;51.166;4.466;2022-09-02T06:13:15;17.70;99.90
25973;DHT22;13765;51.166;4.466;2022-09-02T06:15:43;17.80;99.90
25973;DHT22;13765;51.166;4.466;2022-09-02T06:18:09;17.90;99.90
25973;DHT22;13765;51.166;4.466;2022-09-02T06:20:40;18.00;99.90
25973;DHT22;13765;51.166;4.466;2022-09-02T06:23:06;18.00;99.90
25973;DHT22;13765;51.166;4.466;2022-09-02T06:25:34;18.10;99.90
25973;DHT22;13765;51.166;4.466;2022-09-02T06:28:00;18.20;99.90
25973;DHT22;13765;51.166;4.466;2022-09-02T06:30:25;18.30;99.90
25973;DHT22;13765;51.166;4.466;2022-09-02T06:32:53;18.30;99.90
25973;DHT22;13765;51.166;4.466;2022-09-02T06:35:20;18.30;99.90
25973;DHT22;13765;51.166;4.466;2022-09-02T06:37:48;18.30;99.90
25973;DHT22;13765;51.166;4.466;2022-09-02T06:40:14;18.30;99.90
25973;DHT22;13765;51.166;4.466;2022-09-02T06:42:40;18.40;99.90
25973;DHT22;13765;51.166;4.466;2022-09-02T06:45:08;18.40;99.90
25973;DHT22;13765;51.166;4.466;2022-09-02T06:47:34;18.60;99.90
25973;DHT22;13765;51.166;4.466;2022-09-02T06:50:00;19.10;99.90
25973;DHT22;13765;51.166;4.466;2022-09-02T06:52:26;19.70;99.90
25973;DHT22;13765;51.166;4.466;2022-09-02T06:54:54;20.30;99.90
25973;DHT22;13765;51.166;4.466;2022-09-02T06:57:20;20.80;99.90
25973;DHT22;13765;51.166;4.466;2022-09-02T06:59:46;21.40;99.90
25973;DHT22;13765;51.166;4.466;2022-09-02T07:02:14;21.80;99.90
25973;DHT22;13765;51.166;4.466;2022-09-02T07:04:39;22.10;99.90
25973;DHT22;13765;51.166;4.466;2022-09-02T07:07:24;22.30;99.90
25973;DHT22;13765;51.166;4.466;2022-09-02T07:09:52;22.40;99.90
25973;DHT22;13765;51.166;4.466;2022-09-02T07:12:19;22.50;99.90
25973;DHT22;13765;51.166;4.466;2022-09-02T07:14:46;22.60;99.90
25973;DHT22;13765;51.166;4.466;2022-09-02T07:17:12;22.70;99.90
25973;DHT22;13765;51.166;4.466;2022-09-02T07:19:42;22.80;99.90
25973;DHT22;13765;51.166;4.466;2022-09-02T07:22:08;23.00;99.90
25973;DHT22;13765;51.166;4.466;2022-09-02T07:24:36;23.00;99.90
25973;DHT22;13765;51.166;4.466;2022-09-02T07:27:02;23.00;99.90
25973;DHT22;13765;51.166;4.466;2022-09-02T07:29:28;22.90;99.90
25973;DHT22;13765;51.166;4.466;2022-09-02T07:31:54;22.90;99.90
25973;DHT22;13765;51.166;4.466;2022-09-02T07:34:20;22.90;99.90
25973;DHT22;13765;51.166;4.466;2022-09-02T07:36:46;23.10;99.90
25973;DHT22;13765;51.166;4.466;2022-09-02T07:39:13;23.30;99.90
25973;DHT22;13765;51.166;4.466;2022-09-02T07:41:43;23.60;99.90
25973;DHT22;13765;51.166;4.466;2022-09-02T07:44:09;23.70;99.90
25973;DHT22;13765;51.166;4.466;2022-09-02T07:46:34;23.80;99.90
25973;DHT22;13765;51.166;4.466;2022-09-02T07:49:00;24.00;99.90
25973;DHT22;13765;51.166;4.466;2022-09-02T07:51:27;24.20;99.90
25973;DHT22;13765;51.166;4.466;2022-09-02T07:53:55;24.30;99.90
25973;DHT22;13765;51.166;4.466;2022-09-02T07:56:21;24.50;99.90
25973;DHT22;13765;51.166;4.466;2022-09-02T07:58:46;24.50;99.90
25973;DHT22;13765;51.166;4.466;2022-09-02T08:01:12;24.50;99.90
25973;DHT22;13765;51.166;4.466;2022-09-02T08:03:39;24.30;99.90
25973;DHT22;13765;51.166;4.466;2022-09-02T08:06:05;24.60;99.90
25973;DHT22;13765;51.166;4.466;2022-09-02T08:08:33;24.80;99.90
25973;DHT22;13765;51.166;4.466;2022-09-02T08:10:59;24.90;99.90
25973;DHT22;13765;51.166;4.466;2022-09-02T08:13:25;25.00;99.90
25973;DHT22;13765;51.166;4.466;2022-09-02T08:15:51;25.00;99.90
25973;DHT22;13765;51.166;4.466;2022-09-02T08:18:17;25.20;99.90
25973;DHT22;13765;51.166;4.466;2022-09-02T08:20:43;25.40;99.90
25973;DHT22;13765;51.166;4.466;2022-09-02T08:23:11;25.30;99.50
25973;DHT22;13765;51.166;4.466;2022-09-02T08:25:37;25.40;99.80
25973;DHT22;13765;51.166;4.466;2022-09-02T08:28:03;25.60;99.20
25973;DHT22;13765;51.166;4.466;2022-09-02T08:30:31;25.70;99.20
25973;DHT22;13765;51.166;4.466;2022-09-02T08:32:59;25.60;98.90
25973;DHT22;13765;51.166;4.466;2022-09-02T08:35:27;25.50;99.20
25973;DHT22;13765;51.166;4.466;2022-09-02T08:37:53;25.50;99.30
25973;DHT22;13765;51.166;4.466;2022-09-02T08:40:26;25.70;99.10
25973;DHT22;13765;51.166;4.466;2022-09-02T08:42:54;25.50;99.50
25973;DHT22;13765;51.166;4.466;2022-09-02T08:47:57;25.70;98.50
25973;DHT22;13765;51.166;4.466;2022-09-02T08:50:26;25.60;98.70
25973;DHT22;13765;51.166;4.466;2022-09-02T08:53:10;25.80;98.90
25973;DHT22;13765;51.166;4.466;2022-09-02T08:55:42;26.00;98.30
25973;DHT22;13765;51.166;4.466;2022-09-02T08:58:09;26.20;98.00
25973;DHT22;13765;51.166;4.466;2022-09-02T09:00:38;26.40;98.20
25973;DHT22;13765;51.166;4.466;2022-09-02T09:03:14;26.60;98.10
25973;DHT22;13765;51.166;4.466;2022-09-02T09:05:50;26.60;97.00
25973;DHT22;13765;51.166;4.466;2022-09-02T09:08:25;26.40;97.60
25973;DHT22;13765;51.166;4.466;2022-09-02T09:14:24;26.40;97.90
25973;DHT22;13765;51.166;4.466;2022-09-02T09:19:02;27.10;96.90
25973;DHT22;13765;51.166;4.466;2022-09-02T09:21:31;27.20;96.40
25973;DHT22;13765;51.166;4.466;2022-09-02T09:23:59;27.30;96.20
25973;DHT22;13765;51.166;4.466;2022-09-02T09:26:27;27.20;96.20
25973;DHT22;13765;51.166;4.466;2022-09-02T09:28:56;27.40;96.30
25973;DHT22;13765;51.166;4.466;2022-09-02T09:31:26;27.40;95.60
25973;DHT22;13765;51.166;4.466;2022-09-02T09:33:54;27.30;96.00
25973;DHT22;13765;51.166;4.466;2022-09-02T09:36:33;27.50;96.30
25973;DHT22;13765;51.166;4.466;2022-09-02T09:39:26;27.50;95.70
25973;DHT22;13765;51.166;4.466;2022-09-02T09:42:02;27.60;95.80
25973;DHT22;13765;51.166;4.466;2022-09-02T09:47:03;27.80;95.80
25973;DHT22;13765;51.166;4.466;2022-09-02T09:49:30;28.00;95.20
25973;DHT22;13765;51.166;4.466;2022-09-02T09:51:56;28.40;95.10
25973;DHT22;13765;51.166;4.466;2022-09-02T09:54:24;28.30;94.70
25973;DHT22;13765;51.166;4.466;2022-09-02T09:56:53;28.40;94.40
25973;DHT22;13765;51.166;4.466;2022-09-02T10:02:00;28.60;94.30
25973;DHT22;13765;51.166;4.466;2022-09-02T10:04:29;28.80;94.10
25973;DHT22;13765;51.166;4.466;2022-09-02T10:06:56;29.00;93.60
25973;DHT22;13765;51.166;4.466;2022-09-02T10:11:58;29.00;93.50
25973;DHT22;13765;51.166;4.466;2022-09-02T10:14:43;29.20;93.50
25973;DHT22;13765;51.166;4.466;2022-09-02T10:19:38;29.20;93.00
25973;DHT22;13765;51.166;4.466;2022-09-02T10:27:11;29.40;92.50
25973;DHT22;13765;51.166;4.466;2022-09-02T10:32:58;29.30;92.40
25973;DHT22;13765;51.166;4.466;2022-09-02T10:35:47;29.20;92.30
25973;DHT22;13765;51.166;4.466;2022-09-02T10:41:10;29.50;91.50
25973;DHT22;13765;51.166;4.466;2022-09-02T10:46:22;29.30;90.90
25973;DHT22;13765;51.166;4.466;2022-09-02T10:56:37;30.20;87.80
25973;DHT22;13765;51.166;4.466;2022-09-02T10:59:16;30.30;87.70
25973;DHT22;13765;51.166;4.466;2022-09-02T11:02:06;30.60;85.70
25973;DHT22;13765;51.166;4.466;2022-09-02T11:07:07;30.90;85.50
25973;DHT22;13765;51.166;4.466;2022-09-02T11:12:10;31.00;84.80
25973;DHT22;13765;51.166;4.466;2022-09-02T11:14:45;31.20;84.70
25973;DHT22;13765;51.166;4.466;2022-09-02T11:20:27;31.60;82.50
25973;DHT22;13765;51.166;4.466;2022-09-02T11:22:51;31.80;82.20
25973;DHT22;13765;51.166;4.466;2022-09-02T12:51:57;31.40;72.80
25973;DHT22;13765;51.166;4.466;2022-09-02T12:57:07;31.00;71.70
25973;DHT22;13765;51.166;4.466;2022-09-02T12:59:40;30.30;73.40
25973;DHT22;13765;51.166;4.466;2022-09-02T13:15:22;30.90;70.70
25973;DHT22;13765;51.166;4.466;2022-09-02T13:27:31;31.70;67.00
25973;DHT22;13765;51.166;4.466;2022-09-02T13:33:02;31.70;67.40
25973;DHT22;13765;51.166;4.466;2022-09-02T13:35:31;31.70;67.00
25973;DHT22;13765;51.166;4.466;2022-09-02T13:38:01;31.90;67.30
25973;DHT22;13765;51.166;4.466;2022-09-02T13:40:28;31.70;65.50
25973;DHT22;13765;51.166;4.466;2022-09-02T13:43:02;31.60;66.00
25973;DHT22;13765;51.166;4.466;2022-09-02T13:45:32;31.90;66.30
25973;DHT22;13765;51.166;4.466;2022-09-02T13:48:10;32.30;66.30
25973;DHT22;13765;51.166;4.466;2022-09-02T13:50:43;32.30;65.10
25973;DHT22;13765;51.166;4.466;2022-09-02T13:53:37;31.90;64.60
25973;DHT22;13765;51.166;4.466;2022-09-02T13:56:08;31.50;64.80
25973;DHT22;13765;51.166;4.466;2022-09-02T13:58:37;31.10;67.50
25973;DHT22;13765;51.166;4.466;2022-09-02T14:03:50;31.50;65.60
25973;DHT22;13765;51.166;4.466;2022-09-02T14:06:21;31.50;66.00
25973;DHT22;13765;51.166;4.466;2022-09-02T14:08:54;31.70;65.50
25973;DHT22;13765;51.166;4.466;2022-09-02T14:11:21;31.90;65.90
25973;DHT22;13765;51.166;4.466;2022-09-02T14:13:48;31.70;64.20
25973;DHT22;13765;51.166;4.466;2022-09-02T14:16:24;32.00;63.70
25973;DHT22;13765;51.166;4.466;2022-09-02T14:21:32;31.70;64.40
25973;DHT22;13765;51.166;4.466;2022-09-02T14:23:58;31.50;64.00
25973;DHT22;13765;51.166;4.466;2022-09-02T14:26:30;31.60;63.50
25973;DHT22;13765;51.166;4.466;2022-09-02T14:28:56;31.60;64.20
25973;DHT22;13765;51.166;4.466;2022-09-02T14:31:27;31.30;63.70
25973;DHT22;13765;51.166;4.466;2022-09-02T14:33:59;31.30;64.50
25973;DHT22;13765;51.166;4.466;2022-09-02T14:36:36;31.40;63.80
25973;DHT22;13765;51.166;4.466;2022-09-02T14:39:12;31.60;63.80
25973;DHT22;13765;51.166;4.466;2022-09-02T14:41:48;31.70;63.40
25973;DHT22;13765;51.166;4.466;2022-09-02T14:44:33;31.50;63.50
25973;DHT22;13765;51.166;4.466;2022-09-02T14:47:05;31.30;63.90
25973;DHT22;13765;51.166;4.466;2022-09-02T14:49:34;31.10;63.00
25973;DHT22;13765;51.166;4.466;2022-09-02T14:52:03;31.20;63.50
25973;DHT22;13765;51.166;4.466;2022-09-02T14:54:39;31.10;63.30
25973;DHT22;13765;51.166;4.466;2022-09-02T14:57:28;31.20;63.20
25973;DHT22;13765;51.166;4.466;2022-09-02T14:59:59;31.50;63.90
25973;DHT22;13765;51.166;4.466;2022-09-02T15:04:54;31.50;64.80
25973;DHT22;13765;51.166;4.466;2022-09-02T15:07:24;31.50;65.50
25973;DHT22;13765;51.166;4.466;2022-09-02T15:09:51;31.40;64.70
25973;DHT22;13765;51.166;4.466;2022-09-02T15:12:30;31.20;64.80
25973;DHT22;13765;51.166;4.466;2022-09-02T15:14:58;31.10;64.70
25973;DHT22;13765;51.166;4.466;2022-09-02T15:17:27;31.10;65.20
25973;DHT22;13765;51.166;4.466;2022-09-02T15:19:54;31.00;65.20
25973;DHT22;13765;51.166;4.466;2022-09-02T15:22:21;31.10;65.10
25973;DHT22;13765;51.166;4.466;2022-09-02T15:24:47;31.00;63.70
25973;DHT22;13765;51.166;4.466;2022-09-02T15:27:16;31.00;65.50
25973;DHT22;13765;51.166;4.466;2022-09-02T15:29:43;31.00;64.80
25973;DHT22;13765;51.166;4.466;2022-09-02T15:32:09;30.70;64.80
25973;DHT22;13765;51.166;4.466;2022-09-02T15:34:35;30.60;64.30
25973;DHT22;13765;51.166;4.466;2022-09-02T15:37:01;30.50;64.90
25973;DHT22;13765;51.166;4.466;2022-09-02T15:39:27;30.40;65.90
25973;DHT22;13765;51.166;4.466;2022-09-02T15:41:56;30.40;66.00
25973;DHT22;13765;51.166;4.466;2022-09-02T15:44:23;30.30;65.60
25973;DHT22;13765;51.166;4.466;2022-09-02T15:46:50;30.10;65.50
25973;DHT22;13765;51.166;4.466;2022-09-02T15:49:20;29.90;65.60
25973;DHT22;13765;51.166;4.466;2022-09-02T15:51:47;29.90;66.20
25973;DHT22;13765;51.166;4.466;2022-09-02T15:54:20;29.90;66.80
25973;DHT22;13765;51.166;4.466;2022-09-02T15:56:48;29.90;66.20
25973;DHT22;13765;51.166;4.466;2022-09-02T15:59:20;29.80;67.10
25973;DHT22;13765;51.166;4.466;2022-09-02T16:01:51;29.80;67.80
25973;DHT22;13765;51.166;4.466;2022-09-02T16:04:19;29.60;67.00
25973;DHT22;13765;51.166;4.466;2022-09-02T16:06:47;29.40;68.40
25973;DHT22;13765;51.166;4.466;2022-09-02T16:09:14;29.50;69.60
25973;DHT22;13765;51.166;4.466;2022-09-02T16:11:47;29.50;68.10
25973;DHT22;13765;51.166;4.466;2022-09-02T16:14:13;29.50;67.90
25973;DHT22;13765;51.166;4.466;2022-09-02T16:16:42;29.50;68.50
25973;DHT22;13765;51.166;4.466;2022-09-02T16:19:12;29.10;69.20
25973;DHT22;13765;51.166;4.466;2022-09-02T16:21:38;29.00;69.30
25973;DHT22;13765;51.166;4.466;2022-09-02T16:24:06;28.90;69.20
25973;DHT22;13765;51.166;4.466;2022-09-02T16:26:36;28.70;70.10
25973;DHT22;13765;51.166;4.466;2022-09-02T16:29:12;28.60;70.10
25973;DHT22;13765;51.166;4.466;2022-09-02T16:31:47;28.40;70.00
25973;DHT22;13765;51.166;4.466;2022-09-02T16:34:16;28.30;70.30
25973;DHT22;13765;51.166;4.466;2022-09-02T16:36:46;28.20;70.20
25973;DHT22;13765;51.166;4.466;2022-09-02T16:39:15;28.10;71.00
25973;DHT22;13765;51.166;4.466;2022-09-02T16:41:44;28.00;71.10
25973;DHT22;13765;51.166;4.466;2022-09-02T16:44:20;27.90;70.60
25973;DHT22;13765;51.166;4.466;2022-09-02T16:46:47;27.80;71.30
25973;DHT22;13765;51.166;4.466;2022-09-02T16:49:19;27.90;72.30
25973;DHT22;13765;51.166;4.466;2022-09-02T16:51:47;27.70;72.50
25973;DHT22;13765;51.166;4.466;2022-09-02T16:54:17;27.70;73.20
25973;DHT22;13765;51.166;4.466;2022-09-02T16:56:47;27.60;73.00
25973;DHT22;13765;51.166;4.466;2022-09-02T16:59:13;27.70;72.70
25973;DHT22;13765;51.166;4.466;2022-09-02T17:01:42;27.70;72.80
25973;DHT22;13765;51.166;4.466;2022-09-02T17:04:10;27.60;73.40
25973;DHT22;13765;51.166;4.466;2022-09-02T17:06:36;27.50;73.80
25973;DHT22;13765;51.166;4.466;2022-09-02T17:09:01;27.50;73.40
25973;DHT22;13765;51.166;4.466;2022-09-02T17:11:28;27.50;72.10
25973;DHT22;13765;51.166;4.466;2022-09-02T17:14:03;27.40;72.20
25973;DHT22;13765;51.166;4.466;2022-09-02T17:16:34;27.20;72.40
25973;DHT22;13765;51.166;4.466;2022-09-02T17:19:00;27.10;72.40
25973;DHT22;13765;51.166;4.466;2022-09-02T17:24:05;27.00;73.20
25973;DHT22;13765;51.166;4.466;2022-09-02T17:26:33;26.90;74.40
25973;DHT22;13765;51.166;4.466;2022-09-02T17:29:13;26.80;74.40
25973;DHT22;13765;51.166;4.466;2022-09-02T17:31:41;26.70;74.00
25973;DHT22;13765;51.166;4.466;2022-09-02T17:34:08;26.70;73.30
25973;DHT22;13765;51.166;4.466;2022-09-02T17:36:38;26.60;74.50
25973;DHT22;13765;51.166;4.466;2022-09-02T17:39:18;26.60;74.70
25973;DHT22;13765;51.166;4.466;2022-09-02T17:41:45;26.50;74.80
25973;DHT22;13765;51.166;4.466;2022-09-02T17:44:21;26.40;74.60
25973;DHT22;13765;51.166;4.466;2022-09-02T17:46:50;26.30;74.80
25973;DHT22;13765;51.166;4.466;2022-09-02T17:49:15;26.20;75.80
25973;DHT22;13765;51.166;4.466;2022-09-02T17:51:41;26.10;76.40
25973;DHT22;13765;51.166;4.466;2022-09-02T17:54:11;26.00;75.80
25973;DHT22;13765;51.166;4.466;2022-09-02T18:10:36;25.60;77.30
25973;DHT22;13765;51.166;4.466;2022-09-02T18:13:04;25.50;77.50
25973;DHT22;13765;51.166;4.466;2022-09-02T18:15:39;25.40;77.90
25973;DHT22;13765;51.166;4.466;2022-09-02T18:18:09;25.30;77.70
25973;DHT22;13765;51.166;4.466;2022-09-02T18:20:41;25.20;78.60
25973;DHT22;13765;51.166;4.466;2022-09-02T18:26:11;25.00;79.20
25973;DHT22;13765;51.166;4.466;2022-09-02T18:45:24;24.50;80.30
25973;DHT22;13765;51.166;4.466;2022-09-02T18:47:57;24.50;80.20
25973;DHT22;13765;51.166;4.466;2022-09-02T18:50:32;24.50;81.00
25973;DHT22;13765;51.166;4.466;2022-09-02T18:53:01;24.30;81.00
25973;DHT22;13765;51.166;4.466;2022-09-02T18:55:37;24.20;81.00
25973;DHT22;13765;51.166;4.466;2022-09-02T19:02:12;24.20;81.20
25973;DHT22;13765;51.166;4.466;2022-09-02T19:04:06;24.10;80.90
25973;DHT22;13765;51.166;4.466;2022-09-02T19:06:36;24.10;81.20
25973;DHT22;13765;51.166;4.466;2022-09-02T19:09:11;24.10;81.50
25973;DHT22;13765;51.166;4.466;2022-09-02T19:11:40;24.00;81.20